ESSP/NRK METAR and TAF weather

Enter ICAO airport designator
Station Type Date Time Source
ESSP METAR 2020/11/25 22:20 UTC NOAA

ESSP 252220Z AUTO 25005KT 220V290 9999 FEW017/// BKN030/// OVC130/// 08/05 Q1010


Station Type Date Time Source
ESSP Decoded METAR 2020/11/25 22:20 UTC NOAA

Norrkoping, Sweden (ESSP) 58-35N 016-09E 0M
Nov 25, 2020 - 05:20 PM EST / 2020.11.25 2220 UTC
Wind: from the WSW (250 degrees) at 6 MPH (5 KT) (direction variable):0
Visibility: greater than 7 mile(s):0
Sky conditions: overcast
Temperature: 46 F (8 C)
Dew Point: 41 F (5 C)
Relative Humidity: 81%
Pressure (altimeter): 29.83 in. Hg (1010 hPa)
ob: ESSP 252220Z AUTO 25005KT 220V290 9999 FEW017/// BKN030/// OVC130/// 08/05 Q1010
cycle: 22

Station Type Date Time Source
ESSP TAF 2018/01/01 02:31 UTC NOAA

TAF ESSP 010130Z 0102/0206 16002KT 9999 BKN004 PROB40 0102/0106 4000 BR SCT004

Example: see airport list